sensor_id;sensor_type;location;lat;lon;timestamp;P1;durP1;ratioP1;P2;durP2;ratioP2
15679;SDS011;15488;48.114;11.532;2022-08-05T00:00:27;5.20;;;4.90;;
15679;SDS011;15488;48.114;11.532;2022-08-05T00:02:54;5.30;;;4.90;;
15679;SDS011;15488;48.114;11.532;2022-08-05T00:05:22;5.70;;;5.20;;
15679;SDS011;15488;48.114;11.532;2022-08-05T00:07:51;5.65;;;5.25;;
15679;SDS011;15488;48.114;11.532;2022-08-05T00:10:18;5.90;;;5.40;;
15679;SDS011;15488;48.114;11.532;2022-08-05T00:12:47;5.43;;;4.90;;
15679;SDS011;15488;48.114;11.532;2022-08-05T00:15:14;6.15;;;5.57;;
15679;SDS011;15488;48.114;11.532;2022-08-05T00:17:41;6.05;;;5.55;;
15679;SDS011;15488;48.114;11.532;2022-08-05T00:20:09;6.25;;;5.65;;
15679;SDS011;15488;48.114;11.532;2022-08-05T00:22:37;6.93;;;6.07;;
15679;SDS011;15488;48.114;11.532;2022-08-05T00:25:06;6.72;;;6.13;;
15679;SDS011;15488;48.114;11.532;2022-08-05T00:27:33;6.35;;;5.75;;
15679;SDS011;15488;48.114;11.532;2022-08-05T00:30:01;7.85;;;6.40;;
15679;SDS011;15488;48.114;11.532;2022-08-05T00:32:29;6.90;;;6.22;;
15679;SDS011;15488;48.114;11.532;2022-08-05T00:34:56;8.60;;;6.68;;
15679;SDS011;15488;48.114;11.532;2022-08-05T00:37:24;7.47;;;6.65;;
15679;SDS011;15488;48.114;11.532;2022-08-05T00:39:51;7.50;;;6.57;;
15679;SDS011;15488;48.114;11.532;2022-08-05T00:42:29;7.93;;;7.13;;
15679;SDS011;15488;48.114;11.532;2022-08-05T00:44:57;8.25;;;7.35;;
15679;SDS011;15488;48.114;11.532;2022-08-05T00:47:24;7.95;;;7.15;;
15679;SDS011;15488;48.114;11.532;2022-08-05T00:49:52;9.35;;;6.78;;
15679;SDS011;15488;48.114;11.532;2022-08-05T00:52:19;7.97;;;7.15;;
15679;SDS011;15488;48.114;11.532;2022-08-05T00:54:47;8.93;;;7.57;;
15679;SDS011;15488;48.114;11.532;2022-08-05T00:57:15;8.20;;;7.10;;
15679;SDS011;15488;48.114;11.532;2022-08-05T00:59:43;7.50;;;6.80;;
15679;SDS011;15488;48.114;11.532;2022-08-05T01:02:11;7.07;;;6.45;;
15679;SDS011;15488;48.114;11.532;2022-08-05T01:04:38;7.47;;;6.78;;
15679;SDS011;15488;48.114;11.532;2022-08-05T01:07:06;8.48;;;6.93;;
15679;SDS011;15488;48.114;11.532;2022-08-05T01:09:33;7.80;;;7.07;;
15679;SDS011;15488;48.114;11.532;2022-08-05T01:12:03;7.15;;;6.30;;
15679;SDS011;15488;48.114;11.532;2022-08-05T01:14:36;6.70;;;6.10;;
15679;SDS011;15488;48.114;11.532;2022-08-05T01:17:08;6.43;;;5.80;;
15679;SDS011;15488;48.114;11.532;2022-08-05T01:19:39;6.07;;;5.57;;
15679;SDS011;15488;48.114;11.532;2022-08-05T01:25:20;6.10;;;5.50;;
15679;SDS011;15488;48.114;11.532;2022-08-05T01:28:14;7.90;;;6.20;;
15679;SDS011;15488;48.114;11.532;2022-08-05T01:30:51;6.18;;;5.68;;
15679;SDS011;15488;48.114;11.532;2022-08-05T01:33:22;5.90;;;5.40;;
15679;SDS011;15488;48.114;11.532;2022-08-05T01:35:54;5.72;;;5.20;;
15679;SDS011;15488;48.114;11.532;2022-08-05T01:38:24;6.10;;;5.60;;
15679;SDS011;15488;48.114;11.532;2022-08-05T01:40:53;6.20;;;5.70;;
15679;SDS011;15488;48.114;11.532;2022-08-05T01:43:24;6.20;;;5.60;;
15679;SDS011;15488;48.114;11.532;2022-08-05T01:45:54;5.88;;;5.38;;
15679;SDS011;15488;48.114;11.532;2022-08-05T01:48:22;5.80;;;5.37;;
15679;SDS011;15488;48.114;11.532;2022-08-05T01:50:51;6.03;;;5.63;;
15679;SDS011;15488;48.114;11.532;2022-08-05T01:53:20;6.25;;;5.65;;
15679;SDS011;15488;48.114;11.532;2022-08-05T01:55:49;6.20;;;5.70;;
15679;SDS011;15488;48.114;11.532;2022-08-05T01:58:19;6.07;;;5.68;;
15679;SDS011;15488;48.114;11.532;2022-08-05T02:00:51;6.15;;;5.60;;
15679;SDS011;15488;48.114;11.532;2022-08-05T02:03:22;5.93;;;5.43;;
15679;SDS011;15488;48.114;11.532;2022-08-05T02:05:52;6.00;;;5.50;;
15679;SDS011;15488;48.114;11.532;2022-08-05T02:08:21;6.28;;;5.78;;
15679;SDS011;15488;48.114;11.532;2022-08-05T02:10:50;6.20;;;5.70;;
15679;SDS011;15488;48.114;11.532;2022-08-05T02:13:24;6.03;;;5.43;;
15679;SDS011;15488;48.114;11.532;2022-08-05T02:15:58;6.00;;;5.50;;
15679;SDS011;15488;48.114;11.532;2022-08-05T02:18:30;6.67;;;5.97;;
15679;SDS011;15488;48.114;11.532;2022-08-05T02:21:02;6.27;;;5.70;;
15679;SDS011;15488;48.114;11.532;2022-08-05T02:23:40;6.00;;;5.57;;
15679;SDS011;15488;48.114;11.532;2022-08-05T02:26:09;5.67;;;5.17;;
15679;SDS011;15488;48.114;11.532;2022-08-05T02:28:42;6.07;;;5.60;;
15679;SDS011;15488;48.114;11.532;2022-08-05T02:31:14;5.90;;;5.50;;
15679;SDS011;15488;48.114;11.532;2022-08-05T02:33:46;5.80;;;5.23;;
15679;SDS011;15488;48.114;11.532;2022-08-05T02:36:16;5.93;;;5.43;;
15679;SDS011;15488;48.114;11.532;2022-08-05T02:38:47;6.00;;;5.53;;
15679;SDS011;15488;48.114;11.532;2022-08-05T02:41:16;5.97;;;5.47;;
15679;SDS011;15488;48.114;11.532;2022-08-05T02:43:45;6.07;;;5.57;;
15679;SDS011;15488;48.114;11.532;2022-08-05T02:46:15;5.97;;;5.47;;
15679;SDS011;15488;48.114;11.532;2022-08-05T02:48:45;6.50;;;6.00;;
15679;SDS011;15488;48.114;11.532;2022-08-05T02:51:14;6.00;;;5.50;;
15679;SDS011;15488;48.114;11.532;2022-08-05T02:53:42;6.27;;;5.73;;
15679;SDS011;15488;48.114;11.532;2022-08-05T02:56:11;5.97;;;5.57;;
15679;SDS011;15488;48.114;11.532;2022-08-05T02:58:39;6.00;;;5.50;;
15679;SDS011;15488;48.114;11.532;2022-08-05T03:01:08;6.30;;;5.80;;
15679;SDS011;15488;48.114;11.532;2022-08-05T03:03:41;6.07;;;5.57;;
15679;SDS011;15488;48.114;11.532;2022-08-05T03:06:10;6.10;;;5.60;;
15679;SDS011;15488;48.114;11.532;2022-08-05T03:08:38;7.07;;;6.47;;
15679;SDS011;15488;48.114;11.532;2022-08-05T03:11:15;7.70;;;6.07;;
15679;SDS011;15488;48.114;11.532;2022-08-05T03:13:43;6.33;;;5.73;;
15679;SDS011;15488;48.114;11.532;2022-08-05T03:16:11;6.60;;;6.10;;
15679;SDS011;15488;48.114;11.532;2022-08-05T03:18:38;6.17;;;5.67;;
15679;SDS011;15488;48.114;11.532;2022-08-05T03:21:07;6.03;;;5.53;;
15679;SDS011;15488;48.114;11.532;2022-08-05T03:23:35;6.17;;;5.67;;
15679;SDS011;15488;48.114;11.532;2022-08-05T03:26:04;6.33;;;5.83;;
15679;SDS011;15488;48.114;11.532;2022-08-05T03:28:32;6.60;;;6.00;;
15679;SDS011;15488;48.114;11.532;2022-08-05T03:30:59;6.43;;;5.93;;
15679;SDS011;15488;48.114;11.532;2022-08-05T03:33:28;6.87;;;5.53;;
15679;SDS011;15488;48.114;11.532;2022-08-05T03:35:58;6.40;;;5.90;;
15679;SDS011;15488;48.114;11.532;2022-08-05T03:38:26;5.83;;;5.33;;
15679;SDS011;15488;48.114;11.532;2022-08-05T03:40:54;6.00;;;5.40;;
15679;SDS011;15488;48.114;11.532;2022-08-05T03:43:21;5.87;;;5.47;;
15679;SDS011;15488;48.114;11.532;2022-08-05T03:45:49;6.40;;;5.80;;
15679;SDS011;15488;48.114;11.532;2022-08-05T03:48:18;5.90;;;5.40;;
15679;SDS011;15488;48.114;11.532;2022-08-05T03:50:48;5.80;;;5.40;;
15679;SDS011;15488;48.114;11.532;2022-08-05T03:53:22;6.03;;;5.50;;
15679;SDS011;15488;48.114;11.532;2022-08-05T03:55:59;5.77;;;5.37;;
15679;SDS011;15488;48.114;11.532;2022-08-05T03:58:31;5.47;;;5.07;;
15679;SDS011;15488;48.114;11.532;2022-08-05T04:01:03;5.90;;;5.30;;
15679;SDS011;15488;48.114;11.532;2022-08-05T04:03:33;5.80;;;5.27;;
15679;SDS011;15488;48.114;11.532;2022-08-05T04:06:02;5.70;;;5.20;;
15679;SDS011;15488;48.114;11.532;2022-08-05T04:08:32;5.33;;;4.93;;
15679;SDS011;15488;48.114;11.532;2022-08-05T04:11:01;5.87;;;5.37;;
15679;SDS011;15488;48.114;11.532;2022-08-05T04:13:29;5.17;;;4.77;;
15679;SDS011;15488;48.114;11.532;2022-08-05T04:15:57;5.40;;;5.00;;
15679;SDS011;15488;48.114;11.532;2022-08-05T04:18:25;5.10;;;4.70;;
15679;SDS011;15488;48.114;11.532;2022-08-05T04:20:52;5.10;;;4.70;;
15679;SDS011;15488;48.114;11.532;2022-08-05T04:23:22;5.30;;;4.90;;
15679;SDS011;15488;48.114;11.532;2022-08-05T04:25:52;5.03;;;4.70;;
15679;SDS011;15488;48.114;11.532;2022-08-05T04:28:20;5.63;;;5.10;;
15679;SDS011;15488;48.114;11.532;2022-08-05T04:30:47;4.87;;;4.47;;
15679;SDS011;15488;48.114;11.532;2022-08-05T04:33:15;4.90;;;4.60;;
15679;SDS011;15488;48.114;11.532;2022-08-05T04:35:42;5.10;;;4.70;;
15679;SDS011;15488;48.114;11.532;2022-08-05T04:38:10;5.23;;;4.50;;
15679;SDS011;15488;48.114;11.532;2022-08-05T04:40:38;4.90;;;4.53;;
15679;SDS011;15488;48.114;11.532;2022-08-05T04:43:08;5.17;;;4.67;;
15679;SDS011;15488;48.114;11.532;2022-08-05T04:45:35;5.30;;;4.80;;
15679;SDS011;15488;48.114;11.532;2022-08-05T04:48:03;4.90;;;4.50;;
15679;SDS011;15488;48.114;11.532;2022-08-05T04:50:37;4.97;;;4.57;;
15679;SDS011;15488;48.114;11.532;2022-08-05T04:53:05;4.60;;;4.30;;
15679;SDS011;15488;48.114;11.532;2022-08-05T04:55:33;5.20;;;4.80;;
15679;SDS011;15488;48.114;11.532;2022-08-05T04:58:01;4.87;;;4.50;;
15679;SDS011;15488;48.114;11.532;2022-08-05T05:00:30;4.63;;;4.23;;
15679;SDS011;15488;48.114;11.532;2022-08-05T05:02:59;4.80;;;4.43;;
15679;SDS011;15488;48.114;11.532;2022-08-05T05:05:27;5.00;;;4.60;;
15679;SDS011;15488;48.114;11.532;2022-08-05T05:07:55;4.87;;;4.57;;
15679;SDS011;15488;48.114;11.532;2022-08-05T05:10:26;4.90;;;4.50;;
15679;SDS011;15488;48.114;11.532;2022-08-05T05:12:53;4.57;;;4.27;;
15679;SDS011;15488;48.114;11.532;2022-08-05T05:15:21;4.90;;;4.50;;
15679;SDS011;15488;48.114;11.532;2022-08-05T05:17:50;4.33;;;4.03;;
15679;SDS011;15488;48.114;11.532;2022-08-05T05:20:17;4.73;;;4.33;;
15679;SDS011;15488;48.114;11.532;2022-08-05T05:22:45;5.37;;;4.87;;
15679;SDS011;15488;48.114;11.532;2022-08-05T05:25:12;4.67;;;4.20;;
15679;SDS011;15488;48.114;11.532;2022-08-05T05:27:40;4.57;;;4.20;;
15679;SDS011;15488;48.114;11.532;2022-08-05T05:30:08;4.70;;;4.30;;
15679;SDS011;15488;48.114;11.532;2022-08-05T05:32:36;5.20;;;4.70;;
15679;SDS011;15488;48.114;11.532;2022-08-05T05:35:05;4.83;;;4.43;;
15679;SDS011;15488;48.114;11.532;2022-08-05T05:37:33;4.30;;;4.00;;
15679;SDS011;15488;48.114;11.532;2022-08-05T05:40:12;4.10;;;3.83;;
15679;SDS011;15488;48.114;11.532;2022-08-05T05:42:41;4.77;;;4.00;;
15679;SDS011;15488;48.114;11.532;2022-08-05T05:45:08;4.75;;;4.40;;
15679;SDS011;15488;48.114;11.532;2022-08-05T05:47:36;4.82;;;4.43;;
15679;SDS011;15488;48.114;11.532;2022-08-05T05:50:06;4.55;;;4.05;;
15679;SDS011;15488;48.114;11.532;2022-08-05T05:52:35;4.10;;;3.80;;
15679;SDS011;15488;48.114;11.532;2022-08-05T05:55:05;4.30;;;3.90;;
15679;SDS011;15488;48.114;11.532;2022-08-05T05:57:34;4.30;;;4.00;;
15679;SDS011;15488;48.114;11.532;2022-08-05T06:00:02;4.18;;;3.88;;
15679;SDS011;15488;48.114;11.532;2022-08-05T06:02:32;6.22;;;3.90;;
15679;SDS011;15488;48.114;11.532;2022-08-05T06:04:59;4.10;;;3.80;;
15679;SDS011;15488;48.114;11.532;2022-08-05T06:07:28;4.38;;;3.97;;
15679;SDS011;15488;48.114;11.532;2022-08-05T06:09:56;3.95;;;3.58;;
15679;SDS011;15488;48.114;11.532;2022-08-05T06:12:23;5.57;;;3.80;;
15679;SDS011;15488;48.114;11.532;2022-08-05T06:14:50;4.82;;;4.03;;
15679;SDS011;15488;48.114;11.532;2022-08-05T06:17:18;4.20;;;3.90;;
15679;SDS011;15488;48.114;11.532;2022-08-05T06:19:45;4.65;;;4.13;;
15679;SDS011;15488;48.114;11.532;2022-08-05T06:22:15;4.63;;;4.00;;
15679;SDS011;15488;48.114;11.532;2022-08-05T06:24:50;4.28;;;3.97;;
15679;SDS011;15488;48.114;11.532;2022-08-05T06:27:17;4.40;;;4.00;;
15679;SDS011;15488;48.114;11.532;2022-08-05T06:29:45;4.25;;;3.85;;
15679;SDS011;15488;48.114;11.532;2022-08-05T06:32:12;4.43;;;3.80;;
15679;SDS011;15488;48.114;11.532;2022-08-05T06:34:40;4.13;;;3.78;;
15679;SDS011;15488;48.114;11.532;2022-08-05T06:37:07;4.18;;;3.88;;
15679;SDS011;15488;48.114;11.532;2022-08-05T06:39:35;4.30;;;3.90;;
15679;SDS011;15488;48.114;11.532;2022-08-05T06:42:04;5.63;;;3.80;;
15679;SDS011;15488;48.114;11.532;2022-08-05T06:44:32;4.10;;;3.80;;
15679;SDS011;15488;48.114;11.532;2022-08-05T06:46:59;6.35;;;3.90;;
15679;SDS011;15488;48.114;11.532;2022-08-05T06:49:27;4.20;;;3.90;;
15679;SDS011;15488;48.114;11.532;2022-08-05T06:51:54;4.20;;;3.80;;
15679;SDS011;15488;48.114;11.532;2022-08-05T06:54:22;4.47;;;4.07;;
15679;SDS011;15488;48.114;11.532;2022-08-05T06:56:50;4.18;;;3.88;;
15679;SDS011;15488;48.114;11.532;2022-08-05T06:59:19;4.20;;;3.90;;
15679;SDS011;15488;48.114;11.532;2022-08-05T07:01:46;4.00;;;3.70;;
15679;SDS011;15488;48.114;11.532;2022-08-05T07:04:14;4.88;;;4.10;;
15679;SDS011;15488;48.114;11.532;2022-08-05T07:06:41;4.43;;;4.13;;
15679;SDS011;15488;48.114;11.532;2022-08-05T07:09:08;4.32;;;3.92;;
15679;SDS011;15488;48.114;11.532;2022-08-05T07:11:36;4.70;;;4.25;;
15679;SDS011;15488;48.114;11.532;2022-08-05T07:14:03;6.35;;;5.88;;
15679;SDS011;15488;48.114;11.532;2022-08-05T07:16:50;4.10;;;3.70;;
15679;SDS011;15488;48.114;11.532;2022-08-05T07:19:23;4.30;;;4.00;;
15679;SDS011;15488;48.114;11.532;2022-08-05T07:21:51;4.35;;;4.00;;
15679;SDS011;15488;48.114;11.532;2022-08-05T07:24:19;4.50;;;4.00;;
15679;SDS011;15488;48.114;11.532;2022-08-05T07:26:47;4.47;;;4.10;;
15679;SDS011;15488;48.114;11.532;2022-08-05T07:29:14;4.70;;;3.80;;
15679;SDS011;15488;48.114;11.532;2022-08-05T07:31:42;4.20;;;3.88;;
15679;SDS011;15488;48.114;11.532;2022-08-05T07:34:11;4.38;;;3.90;;
15679;SDS011;15488;48.114;11.532;2022-08-05T07:36:38;4.05;;;3.80;;
15679;SDS011;15488;48.114;11.532;2022-08-05T07:39:07;4.40;;;4.00;;
15679;SDS011;15488;48.114;11.532;2022-08-05T07:41:35;4.35;;;3.90;;
15679;SDS011;15488;48.114;11.532;2022-08-05T07:44:03;4.47;;;4.07;;
15679;SDS011;15488;48.114;11.532;2022-08-05T07:46:32;6.03;;;4.18;;
15679;SDS011;15488;48.114;11.532;2022-08-05T07:49:00;4.47;;;4.07;;
15679;SDS011;15488;48.114;11.532;2022-08-05T07:51:30;5.00;;;4.60;;
15679;SDS011;15488;48.114;11.532;2022-08-05T07:53:59;4.65;;;4.35;;
15679;SDS011;15488;48.114;11.532;2022-08-05T07:56:26;7.40;;;4.97;;
15679;SDS011;15488;48.114;11.532;2022-08-05T07:58:53;8.05;;;7.28;;
15679;SDS011;15488;48.114;11.532;2022-08-05T08:01:21;4.78;;;4.38;;
15679;SDS011;15488;48.114;11.532;2022-08-05T08:03:50;6.03;;;5.28;;
15679;SDS011;15488;48.114;11.532;2022-08-05T08:06:17;4.97;;;4.57;;
15679;SDS011;15488;48.114;11.532;2022-08-05T08:08:46;6.43;;;4.53;;
15679;SDS011;15488;48.114;11.532;2022-08-05T08:11:13;6.13;;;4.93;;
15679;SDS011;15488;48.114;11.532;2022-08-05T08:13:41;4.70;;;4.30;;
15679;SDS011;15488;48.114;11.532;2022-08-05T08:16:08;4.90;;;4.47;;
15679;SDS011;15488;48.114;11.532;2022-08-05T08:18:36;5.07;;;4.57;;
15679;SDS011;15488;48.114;11.532;2022-08-05T08:21:03;5.28;;;4.78;;
15679;SDS011;15488;48.114;11.532;2022-08-05T08:23:31;6.95;;;5.18;;
15679;SDS011;15488;48.114;11.532;2022-08-05T08:26:00;5.20;;;4.70;;
15679;SDS011;15488;48.114;11.532;2022-08-05T08:28:28;5.60;;;5.10;;
15679;SDS011;15488;48.114;11.532;2022-08-05T08:30:55;5.97;;;5.47;;
15679;SDS011;15488;48.114;11.532;2022-08-05T08:33:23;7.53;;;5.10;;
15679;SDS011;15488;48.114;11.532;2022-08-05T08:35:50;5.90;;;5.30;;
15679;SDS011;15488;48.114;11.532;2022-08-05T08:38:18;6.63;;;5.85;;
15679;SDS011;15488;48.114;11.532;2022-08-05T08:40:45;5.57;;;5.07;;
15679;SDS011;15488;48.114;11.532;2022-08-05T08:43:15;5.50;;;5.10;;
15679;SDS011;15488;48.114;11.532;2022-08-05T08:45:45;5.97;;;5.40;;
15679;SDS011;15488;48.114;11.532;2022-08-05T08:48:17;5.38;;;4.90;;
15679;SDS011;15488;48.114;11.532;2022-08-05T08:50:45;7.93;;;5.45;;
15679;SDS011;15488;48.114;11.532;2022-08-05T08:53:14;6.07;;;5.47;;
15679;SDS011;15488;48.114;11.532;2022-08-05T08:55:43;6.45;;;5.57;;
15679;SDS011;15488;48.114;11.532;2022-08-05T08:58:11;8.18;;;5.78;;
15679;SDS011;15488;48.114;11.532;2022-08-05T09:00:42;6.20;;;5.20;;
15679;SDS011;15488;48.114;11.532;2022-08-05T09:03:10;5.53;;;5.03;;
15679;SDS011;15488;48.114;11.532;2022-08-05T09:05:38;6.13;;;5.15;;
15679;SDS011;15488;48.114;11.532;2022-08-05T09:08:05;5.85;;;5.30;;
15679;SDS011;15488;48.114;11.532;2022-08-05T09:10:33;5.68;;;5.18;;
15679;SDS011;15488;48.114;11.532;2022-08-05T09:13:01;5.90;;;5.32;;
15679;SDS011;15488;48.114;11.532;2022-08-05T09:15:29;6.07;;;5.57;;
15679;SDS011;15488;48.114;11.532;2022-08-05T09:17:57;5.88;;;5.38;;
15679;SDS011;15488;48.114;11.532;2022-08-05T09:20:25;7.45;;;5.82;;
15679;SDS011;15488;48.114;11.532;2022-08-05T09:23:06;6.03;;;5.53;;
15679;SDS011;15488;48.114;11.532;2022-08-05T09:25:36;5.60;;;5.10;;
15679;SDS011;15488;48.114;11.532;2022-08-05T09:28:08;5.57;;;5.07;;
15679;SDS011;15488;48.114;11.532;2022-08-05T09:30:39;5.78;;;5.28;;
15679;SDS011;15488;48.114;11.532;2022-08-05T09:33:09;6.28;;;5.68;;
15679;SDS011;15488;48.114;11.532;2022-08-05T09:35:36;5.30;;;4.85;;
15679;SDS011;15488;48.114;11.532;2022-08-05T09:38:17;5.75;;;5.18;;
15679;SDS011;15488;48.114;11.532;2022-08-05T09:40:45;6.63;;;4.80;;
15679;SDS011;15488;48.114;11.532;2022-08-05T09:43:24;6.45;;;5.47;;
15679;SDS011;15488;48.114;11.532;2022-08-05T09:45:54;5.28;;;4.88;;
15679;SDS011;15488;48.114;11.532;2022-08-05T09:48:23;5.40;;;5.00;;
15679;SDS011;15488;48.114;11.532;2022-08-05T09:50:52;5.40;;;5.00;;
15679;SDS011;15488;48.114;11.532;2022-08-05T09:53:21;5.90;;;5.30;;
15679;SDS011;15488;48.114;11.532;2022-08-05T09:55:55;5.40;;;4.90;;
15679;SDS011;15488;48.114;11.532;2022-08-05T09:58:24;6.00;;;4.90;;
15679;SDS011;15488;48.114;11.532;2022-08-05T10:00:55;5.20;;;4.80;;
15679;SDS011;15488;48.114;11.532;2022-08-05T10:03:25;6.05;;;5.55;;
15679;SDS011;15488;48.114;11.532;2022-08-05T10:06:00;5.53;;;5.00;;
15679;SDS011;15488;48.114;11.532;2022-08-05T10:08:29;7.53;;;5.07;;
15679;SDS011;15488;48.114;11.532;2022-08-05T10:10:57;5.43;;;4.95;;
15679;SDS011;15488;48.114;11.532;2022-08-05T10:13:29;5.63;;;5.05;;
15679;SDS011;15488;48.114;11.532;2022-08-05T10:15:59;5.47;;;4.85;;
15679;SDS011;15488;48.114;11.532;2022-08-05T10:18:27;6.05;;;5.50;;
15679;SDS011;15488;48.114;11.532;2022-08-05T10:20:58;5.72;;;4.95;;
15679;SDS011;15488;48.114;11.532;2022-08-05T10:23:30;5.57;;;5.07;;
15679;SDS011;15488;48.114;11.532;2022-08-05T10:26:01;5.00;;;4.65;;
15679;SDS011;15488;48.114;11.532;2022-08-05T10:28:31;5.18;;;4.75;;
15679;SDS011;15488;48.114;11.532;2022-08-05T10:31:01;5.57;;;4.90;;
15679;SDS011;15488;48.114;11.532;2022-08-05T10:33:29;5.20;;;4.80;;
15679;SDS011;15488;48.114;11.532;2022-08-05T10:35:58;6.15;;;4.93;;
15679;SDS011;15488;48.114;11.532;2022-08-05T10:38:28;5.85;;;4.70;;
15679;SDS011;15488;48.114;11.532;2022-08-05T10:41:00;5.63;;;4.78;;
15679;SDS011;15488;48.114;11.532;2022-08-05T10:43:38;10.93;;;5.10;;
15679;SDS011;15488;48.114;11.532;2022-08-05T10:46:16;5.07;;;4.57;;
15679;SDS011;15488;48.114;11.532;2022-08-05T10:48:45;5.53;;;4.43;;
15679;SDS011;15488;48.114;11.532;2022-08-05T10:51:14;5.07;;;4.50;;
15679;SDS011;15488;48.114;11.532;2022-08-05T10:53:43;4.90;;;4.50;;
15679;SDS011;15488;48.114;11.532;2022-08-05T10:56:18;5.50;;;4.95;;
15679;SDS011;15488;48.114;11.532;2022-08-05T10:59:00;5.43;;;4.80;;
15679;SDS011;15488;48.114;11.532;2022-08-05T11:01:33;5.07;;;4.57;;
15679;SDS011;15488;48.114;11.532;2022-08-05T11:04:06;6.85;;;4.93;;
15679;SDS011;15488;48.114;11.532;2022-08-05T11:09:35;7.18;;;4.10;;
15679;SDS011;15488;48.114;11.532;2022-08-05T11:15:15;4.90;;;4.10;;
15679;SDS011;15488;48.114;11.532;2022-08-05T11:17:48;5.90;;;4.70;;
15679;SDS011;15488;48.114;11.532;2022-08-05T11:20:34;5.13;;;4.75;;
15679;SDS011;15488;48.114;11.532;2022-08-05T11:26:04;4.72;;;4.43;;
15679;SDS011;15488;48.114;11.532;2022-08-05T11:28:40;5.32;;;4.82;;
15679;SDS011;15488;48.114;11.532;2022-08-05T11:31:18;5.68;;;4.65;;
15679;SDS011;15488;48.114;11.532;2022-08-05T11:33:53;5.63;;;4.93;;
15679;SDS011;15488;48.114;11.532;2022-08-05T11:36:37;5.47;;;4.20;;
15679;SDS011;15488;48.114;11.532;2022-08-05T11:39:08;4.60;;;4.20;;
15679;SDS011;15488;48.114;11.532;2022-08-05T11:41:37;4.57;;;4.18;;
15679;SDS011;15488;48.114;11.532;2022-08-05T11:44:06;4.57;;;4.22;;
15679;SDS011;15488;48.114;11.532;2022-08-05T11:46:39;4.53;;;4.22;;
15679;SDS011;15488;48.114;11.532;2022-08-05T11:49:10;4.85;;;4.45;;
15679;SDS011;15488;48.114;11.532;2022-08-05T11:51:40;4.80;;;4.28;;
15679;SDS011;15488;48.114;11.532;2022-08-05T11:54:09;4.97;;;4.60;;
15679;SDS011;15488;48.114;11.532;2022-08-05T11:56:44;5.22;;;4.38;;
15679;SDS011;15488;48.114;11.532;2022-08-05T11:59:13;4.68;;;4.28;;
15679;SDS011;15488;48.114;11.532;2022-08-05T12:01:51;4.97;;;4.50;;
15679;SDS011;15488;48.114;11.532;2022-08-05T12:04:28;4.93;;;4.53;;
15679;SDS011;15488;48.114;11.532;2022-08-05T12:07:03;5.07;;;4.65;;
15679;SDS011;15488;48.114;11.532;2022-08-05T12:09:34;5.50;;;4.90;;
15679;SDS011;15488;48.114;11.532;2022-08-05T12:12:03;4.32;;;4.03;;
15679;SDS011;15488;48.114;11.532;2022-08-05T12:14:35;5.20;;;4.80;;
15679;SDS011;15488;48.114;11.532;2022-08-05T12:17:06;4.72;;;4.32;;
15679;SDS011;15488;48.114;11.532;2022-08-05T12:19:42;5.00;;;4.50;;
15679;SDS011;15488;48.114;11.532;2022-08-05T12:22:10;6.15;;;4.72;;
15679;SDS011;15488;48.114;11.532;2022-08-05T12:24:41;6.57;;;4.18;;
15679;SDS011;15488;48.114;11.532;2022-08-05T12:27:17;4.60;;;4.20;;
15679;SDS011;15488;48.114;11.532;2022-08-05T12:29:56;4.57;;;4.18;;
15679;SDS011;15488;48.114;11.532;2022-08-05T12:32:26;5.80;;;4.60;;
15679;SDS011;15488;48.114;11.532;2022-08-05T12:34:57;5.05;;;4.55;;
15679;SDS011;15488;48.114;11.532;2022-08-05T12:37:25;6.20;;;5.60;;
15679;SDS011;15488;48.114;11.532;2022-08-05T12:39:53;4.88;;;4.47;;
15679;SDS011;15488;48.114;11.532;2022-08-05T12:42:22;5.75;;;4.40;;
15679;SDS011;15488;48.114;11.532;2022-08-05T12:44:59;5.00;;;4.57;;
15679;SDS011;15488;48.114;11.532;2022-08-05T12:47:28;5.05;;;4.55;;
15679;SDS011;15488;48.114;11.532;2022-08-05T12:49:58;4.50;;;4.20;;
15679;SDS011;15488;48.114;11.532;2022-08-05T12:52:26;5.00;;;4.60;;
15679;SDS011;15488;48.114;11.532;2022-08-05T12:54:53;4.80;;;4.43;;
15679;SDS011;15488;48.114;11.532;2022-08-05T12:57:21;4.32;;;3.92;;
15679;SDS011;15488;48.114;11.532;2022-08-05T12:59:49;4.90;;;4.40;;
15679;SDS011;15488;48.114;11.532;2022-08-05T13:02:19;5.15;;;4.72;;
15679;SDS011;15488;48.114;11.532;2022-08-05T13:04:47;5.05;;;4.65;;
15679;SDS011;15488;48.114;11.532;2022-08-05T13:07:18;5.20;;;4.80;;
15679;SDS011;15488;48.114;11.532;2022-08-05T13:09:49;7.10;;;6.50;;
15679;SDS011;15488;48.114;11.532;2022-08-05T13:12:18;5.10;;;4.70;;
15679;SDS011;15488;48.114;11.532;2022-08-05T13:14:48;4.70;;;4.30;;
15679;SDS011;15488;48.114;11.532;2022-08-05T13:17:17;5.00;;;4.60;;
15679;SDS011;15488;48.114;11.532;2022-08-05T13:19:59;5.10;;;4.70;;
15679;SDS011;15488;48.114;11.532;2022-08-05T13:22:31;5.25;;;4.70;;
15679;SDS011;15488;48.114;11.532;2022-08-05T13:25:00;5.07;;;4.68;;
15679;SDS011;15488;48.114;11.532;2022-08-05T13:27:30;5.07;;;4.68;;
15679;SDS011;15488;48.114;11.532;2022-08-05T13:29:59;5.88;;;5.47;;
15679;SDS011;15488;48.114;11.532;2022-08-05T13:32:27;5.45;;;5.05;;
15679;SDS011;15488;48.114;11.532;2022-08-05T13:34:55;7.18;;;6.57;;
15679;SDS011;15488;48.114;11.532;2022-08-05T13:37:23;7.53;;;6.93;;
15679;SDS011;15488;48.114;11.532;2022-08-05T13:39:52;6.32;;;5.82;;
15679;SDS011;15488;48.114;11.532;2022-08-05T13:42:20;6.15;;;5.60;;
15679;SDS011;15488;48.114;11.532;2022-08-05T13:44:49;6.05;;;5.65;;
15679;SDS011;15488;48.114;11.532;2022-08-05T13:47:17;7.07;;;6.53;;
15679;SDS011;15488;48.114;11.532;2022-08-05T13:49:45;5.97;;;5.57;;
15679;SDS011;15488;48.114;11.532;2022-08-05T13:52:13;6.45;;;6.05;;
15679;SDS011;15488;48.114;11.532;2022-08-05T13:54:42;6.15;;;5.65;;
15679;SDS011;15488;48.114;11.532;2022-08-05T13:57:11;6.15;;;5.40;;
15679;SDS011;15488;48.114;11.532;2022-08-05T13:59:40;5.72;;;5.43;;
15679;SDS011;15488;48.114;11.532;2022-08-05T14:02:08;5.63;;;5.22;;
15679;SDS011;15488;48.114;11.532;2022-08-05T14:04:38;5.85;;;5.45;;
15679;SDS011;15488;48.114;11.532;2022-08-05T14:07:24;5.72;;;5.22;;
15679;SDS011;15488;48.114;11.532;2022-08-05T14:09:53;5.85;;;5.43;;
15679;SDS011;15488;48.114;11.532;2022-08-05T14:12:22;5.22;;;4.90;;
15679;SDS011;15488;48.114;11.532;2022-08-05T14:14:50;6.18;;;5.80;;
15679;SDS011;15488;48.114;11.532;2022-08-05T14:17:17;6.55;;;6.03;;
15679;SDS011;15488;48.114;11.532;2022-08-05T14:19:47;7.10;;;6.70;;
15679;SDS011;15488;48.114;11.532;2022-08-05T14:22:15;9.35;;;8.52;;
15679;SDS011;15488;48.114;11.532;2022-08-05T14:24:42;8.63;;;8.07;;
15679;SDS011;15488;48.114;11.532;2022-08-05T14:27:10;8.90;;;8.30;;
15679;SDS011;15488;48.114;11.532;2022-08-05T14:29:38;9.70;;;9.10;;
15679;SDS011;15488;48.114;11.532;2022-08-05T14:32:06;10.32;;;9.50;;
15679;SDS011;15488;48.114;11.532;2022-08-05T14:34:33;10.35;;;9.85;;
15679;SDS011;15488;48.114;11.532;2022-08-05T14:37:01;7.93;;;7.43;;
15679;SDS011;15488;48.114;11.532;2022-08-05T14:39:28;8.68;;;8.10;;
15679;SDS011;15488;48.114;11.532;2022-08-05T14:41:56;9.18;;;8.73;;
15679;SDS011;15488;48.114;11.532;2022-08-05T14:44:24;9.25;;;8.75;;
15679;SDS011;15488;48.114;11.532;2022-08-05T14:46:53;10.05;;;9.48;;
15679;SDS011;15488;48.114;11.532;2022-08-05T14:49:21;11.40;;;10.75;;
15679;SDS011;15488;48.114;11.532;2022-08-05T14:51:48;11.63;;;11.02;;
15679;SDS011;15488;48.114;11.532;2022-08-05T14:54:16;12.52;;;11.80;;
15679;SDS011;15488;48.114;11.532;2022-08-05T14:56:43;12.23;;;11.63;;
15679;SDS011;15488;48.114;11.532;2022-08-05T14:59:11;12.30;;;11.75;;